createdAt,value
2023-03-10T07:58:36.384Z,68.322754
2023-03-10T07:59:37.510Z,67.523193
2023-03-10T08:00:39.913Z,67.822266
2023-03-10T08:01:36.521Z,67.926025
2023-03-10T08:02:36.505Z,67.022705
2023-03-10T08:03:36.561Z,66.821289
2023-03-10T08:04:37.646Z,65.625
2023-03-10T08:05:38.466Z,65.020752
2023-03-10T08:06:36.360Z,64.39209
2023-03-10T08:07:37.477Z,63.189697
2023-03-10T08:08:36.551Z,63.293457
2023-03-10T08:09:36.455Z,62.792969
2023-03-10T08:10:36.412Z,62.695312
2023-03-10T08:11:36.425Z,63.293457
2023-03-10T08:12:36.386Z,63.092041
2023-03-10T08:13:37.368Z,63.092041
2023-03-10T08:14:37.372Z,62.762451
2023-03-10T08:15:38.319Z,61.993408
2023-03-10T08:16:36.350Z,61.993408
2023-03-10T08:17:36.301Z,61.889648
2023-03-10T08:18:37.408Z,61.993408
2023-03-10T08:19:37.408Z,61.49292
2023-03-10T08:20:36.254Z,61.49292
2023-03-10T08:21:37.330Z,61.16333
2023-03-10T08:22:37.367Z,61.065674
2023-03-10T08:23:36.268Z,60.864258
2023-03-10T08:24:36.234Z,60.266113
2023-03-10T08:25:36.255Z,59.564209
2023-03-10T08:26:37.327Z,59.863281
2023-03-10T08:27:36.211Z,59.362793
2023-03-10T08:28:37.074Z,59.16748
2023-03-10T08:29:36.146Z,58.862305
2023-03-10T08:30:36.224Z,58.03833
2023-03-10T08:31:37.078Z,57.836914
2023-03-10T08:32:38.149Z,57.537842
2023-03-10T08:33:38.102Z,57.440186
2023-03-10T08:34:38.466Z,56.439209
2023-03-10T08:35:39.922Z,56.512451
2023-03-10T08:36:36.080Z,56.109619
2023-03-10T08:37:37.190Z,55.914307
2023-03-10T08:38:38.132Z,55.615234
2023-03-10T08:39:35.986Z,55.413818
